Phoenix, Arizona
Traffic Map
Current Weather Conditions
Phoenix, Arizona
Clear
Clear
80°
Feels Like: 80°
Wind Chill: 80° Ceiling: Unl
Heat Index: 80° Visibility: 10mi
Dew Point: Wind: 9mph
Humidity: 7% Direction: 140° (SE)
Pressure: 29.97in Gusts: 0mph
Raw Report DataKPHX 070051Z 14008KT 10SM CLR 27/M13 A2997 RMK AO2 SLP136 T02671128
Traffic Incident Summary
Active as of:
Severity:
Category:
InformationThere was an issue retrieving the traffic information for this location. Please try a different location or try again shortly.
Advertisements
Track Severe Weather on mobile